sensor_id;sensor_type;location;lat;lon;timestamp;P1;durP1;ratioP1;P2;durP2;ratioP2
57615;SDS011;43816;52.054;-9.494;2023-08-17T00:00:05;3.10;;;3.00;;
57615;SDS011;43816;52.054;-9.494;2023-08-17T00:00:16;3.03;;;2.92;;
57615;SDS011;43816;52.054;-9.494;2023-08-17T00:00:26;3.07;;;2.97;;
57615;SDS011;43816;52.054;-9.494;2023-08-17T00:00:37;3.03;;;2.92;;
57615;SDS011;43816;52.054;-9.494;2023-08-17T00:00:47;3.10;;;3.00;;
57615;SDS011;43816;52.054;-9.494;2023-08-17T00:00:57;3.07;;;2.97;;
57615;SDS011;43816;52.054;-9.494;2023-08-17T00:01:08;3.00;;;2.90;;
57615;SDS011;43816;52.054;-9.494;2023-08-17T00:01:19;2.85;;;2.75;;
57615;SDS011;43816;52.054;-9.494;2023-08-17T00:01:29;2.85;;;2.75;;
57615;SDS011;43816;52.054;-9.494;2023-08-17T00:01:39;2.97;;;2.87;;
57615;SDS011;43816;52.054;-9.494;2023-08-17T00:01:50;2.80;;;2.70;;
57615;SDS011;43816;52.054;-9.494;2023-08-17T00:02:00;2.90;;;2.80;;
57615;SDS011;43816;52.054;-9.494;2023-08-17T00:02:11;2.87;;;2.77;;
57615;SDS011;43816;52.054;-9.494;2023-08-17T00:02:22;2.95;;;2.85;;
57615;SDS011;43816;52.054;-9.494;2023-08-17T00:02:32;2.87;;;2.77;;
57615;SDS011;43816;52.054;-9.494;2023-08-17T00:02:42;2.90;;;2.80;;
57615;SDS011;43816;52.054;-9.494;2023-08-17T00:02:52;2.90;;;2.80;;
57615;SDS011;43816;52.054;-9.494;2023-08-17T00:03:03;3.00;;;2.90;;
57615;SDS011;43816;52.054;-9.494;2023-08-17T00:03:13;2.90;;;2.80;;
57615;SDS011;43816;52.054;-9.494;2023-08-17T00:03:23;3.00;;;2.90;;
57615;SDS011;43816;52.054;-9.494;2023-08-17T00:03:34;3.00;;;2.90;;
57615;SDS011;43816;52.054;-9.494;2023-08-17T00:03:44;3.00;;;2.90;;
57615;SDS011;43816;52.054;-9.494;2023-08-17T00:03:54;2.93;;;2.83;;
57615;SDS011;43816;52.054;-9.494;2023-08-17T00:04:04;3.00;;;2.90;;
57615;SDS011;43816;52.054;-9.494;2023-08-17T00:04:15;3.10;;;3.00;;
57615;SDS011;43816;52.054;-9.494;2023-08-17T00:04:25;3.10;;;3.00;;
57615;SDS011;43816;52.054;-9.494;2023-08-17T00:04:35;3.03;;;2.92;;
57615;SDS011;43816;52.054;-9.494;2023-08-17T00:04:46;3.00;;;2.90;;
57615;SDS011;43816;52.054;-9.494;2023-08-17T00:04:56;2.83;;;2.73;;
57615;SDS011;43816;52.054;-9.494;2023-08-17T00:05:06;2.73;;;2.63;;
57615;SDS011;43816;52.054;-9.494;2023-08-17T00:05:17;2.72;;;2.63;;
57615;SDS011;43816;52.054;-9.494;2023-08-17T00:05:27;2.80;;;2.70;;
57615;SDS011;43816;52.054;-9.494;2023-08-17T00:05:37;2.83;;;2.72;;
57615;SDS011;43816;52.054;-9.494;2023-08-17T00:05:49;2.70;;;2.60;;
57615;SDS011;43816;52.054;-9.494;2023-08-17T00:05:59;2.70;;;2.60;;
57615;SDS011;43816;52.054;-9.494;2023-08-17T00:06:10;2.80;;;2.70;;
57615;SDS011;43816;52.054;-9.494;2023-08-17T00:06:20;2.70;;;2.60;;
57615;SDS011;43816;52.054;-9.494;2023-08-17T00:06:30;2.70;;;2.60;;
57615;SDS011;43816;52.054;-9.494;2023-08-17T00:06:40;2.70;;;2.60;;
57615;SDS011;43816;52.054;-9.494;2023-08-17T00:06:51;2.80;;;2.70;;
57615;SDS011;43816;52.054;-9.494;2023-08-17T00:07:01;2.90;;;2.80;;
57615;SDS011;43816;52.054;-9.494;2023-08-17T00:07:11;2.88;;;2.78;;
57615;SDS011;43816;52.054;-9.494;2023-08-17T00:07:22;2.90;;;2.80;;
57615;SDS011;43816;52.054;-9.494;2023-08-17T00:07:32;3.00;;;2.90;;
57615;SDS011;43816;52.054;-9.494;2023-08-17T00:07:43;3.00;;;2.90;;
57615;SDS011;43816;52.054;-9.494;2023-08-17T00:07:53;2.87;;;2.77;;
57615;SDS011;43816;52.054;-9.494;2023-08-17T00:08:03;2.80;;;2.70;;
57615;SDS011;43816;52.054;-9.494;2023-08-17T00:08:14;3.13;;;3.03;;
57615;SDS011;43816;52.054;-9.494;2023-08-17T00:08:24;3.22;;;3.13;;
57615;SDS011;43816;52.054;-9.494;2023-08-17T00:08:34;3.13;;;3.03;;
57615;SDS011;43816;52.054;-9.494;2023-08-17T00:08:45;3.00;;;2.90;;
57615;SDS011;43816;52.054;-9.494;2023-08-17T00:08:55;2.85;;;2.75;;
57615;SDS011;43816;52.054;-9.494;2023-08-17T00:09:05;2.93;;;2.83;;
57615;SDS011;43816;52.054;-9.494;2023-08-17T00:09:16;2.80;;;2.70;;
57615;SDS011;43816;52.054;-9.494;2023-08-17T00:09:26;2.88;;;2.80;;
57615;SDS011;43816;52.054;-9.494;2023-08-17T00:09:36;2.93;;;2.83;;
57615;SDS011;43816;52.054;-9.494;2023-08-17T00:09:49;2.70;;;2.70;;
57615;SDS011;43816;52.054;-9.494;2023-08-17T00:09:59;2.63;;;2.57;;
57615;SDS011;43816;52.054;-9.494;2023-08-17T00:10:10;2.60;;;2.50;;
57615;SDS011;43816;52.054;-9.494;2023-08-17T00:10:20;2.63;;;2.53;;
57615;SDS011;43816;52.054;-9.494;2023-08-17T00:10:30;2.67;;;2.63;;
57615;SDS011;43816;52.054;-9.494;2023-08-17T00:10:40;2.67;;;2.67;;
57615;SDS011;43816;52.054;-9.494;2023-08-17T00:10:51;2.60;;;2.60;;
57615;SDS011;43816;52.054;-9.494;2023-08-17T00:11:01;2.80;;;2.70;;
57615;SDS011;43816;52.054;-9.494;2023-08-17T00:11:11;2.80;;;2.70;;
57615;SDS011;43816;52.054;-9.494;2023-08-17T00:11:21;3.00;;;2.90;;
57615;SDS011;43816;52.054;-9.494;2023-08-17T00:11:32;3.00;;;2.90;;
57615;SDS011;43816;52.054;-9.494;2023-08-17T00:11:43;2.90;;;2.80;;
57615;SDS011;43816;52.054;-9.494;2023-08-17T00:11:53;2.90;;;2.80;;
57615;SDS011;43816;52.054;-9.494;2023-08-17T00:12:04;3.00;;;2.90;;
57615;SDS011;43816;52.054;-9.494;2023-08-17T00:12:14;2.97;;;2.88;;
57615;SDS011;43816;52.054;-9.494;2023-08-17T00:12:24;2.80;;;2.70;;
57615;SDS011;43816;52.054;-9.494;2023-08-17T00:12:35;2.85;;;2.75;;
57615;SDS011;43816;52.054;-9.494;2023-08-17T00:12:45;2.87;;;2.77;;
57615;SDS011;43816;52.054;-9.494;2023-08-17T00:12:56;3.03;;;2.93;;
57615;SDS011;43816;52.054;-9.494;2023-08-17T00:13:06;2.95;;;2.85;;
57615;SDS011;43816;52.054;-9.494;2023-08-17T00:13:16;3.10;;;3.00;;
57615;SDS011;43816;52.054;-9.494;2023-08-17T00:13:27;2.90;;;2.80;;
57615;SDS011;43816;52.054;-9.494;2023-08-17T00:13:37;2.83;;;2.73;;
57615;SDS011;43816;52.054;-9.494;2023-08-17T00:13:47;2.70;;;2.60;;
57615;SDS011;43816;52.054;-9.494;2023-08-17T00:13:58;2.70;;;2.63;;
57615;SDS011;43816;52.054;-9.494;2023-08-17T00:14:08;2.88;;;2.78;;
57615;SDS011;43816;52.054;-9.494;2023-08-17T00:14:18;2.90;;;2.80;;
57615;SDS011;43816;52.054;-9.494;2023-08-17T00:14:28;2.90;;;2.80;;
57615;SDS011;43816;52.054;-9.494;2023-08-17T00:14:39;3.00;;;2.90;;
57615;SDS011;43816;52.054;-9.494;2023-08-17T00:14:49;3.00;;;2.90;;
57615;SDS011;43816;52.054;-9.494;2023-08-17T00:15:00;2.92;;;2.83;;
57615;SDS011;43816;52.054;-9.494;2023-08-17T00:15:11;2.95;;;2.85;;
57615;SDS011;43816;52.054;-9.494;2023-08-17T00:15:21;3.13;;;3.03;;
57615;SDS011;43816;52.054;-9.494;2023-08-17T00:15:32;3.03;;;2.92;;
57615;SDS011;43816;52.054;-9.494;2023-08-17T00:15:42;2.83;;;2.73;;
57615;SDS011;43816;52.054;-9.494;2023-08-17T00:15:52;2.67;;;2.67;;
57615;SDS011;43816;52.054;-9.494;2023-08-17T00:16:03;2.85;;;2.75;;
57615;SDS011;43816;52.054;-9.494;2023-08-17T00:16:13;2.93;;;2.83;;
57615;SDS011;43816;52.054;-9.494;2023-08-17T00:16:23;2.93;;;2.83;;
57615;SDS011;43816;52.054;-9.494;2023-08-17T00:16:34;3.07;;;2.97;;
57615;SDS011;43816;52.054;-9.494;2023-08-17T00:16:44;2.90;;;2.80;;
57615;SDS011;43816;52.054;-9.494;2023-08-17T00:16:54;2.77;;;2.67;;
57615;SDS011;43816;52.054;-9.494;2023-08-17T00:17:05;2.60;;;2.50;;
57615;SDS011;43816;52.054;-9.494;2023-08-17T00:17:15;2.63;;;2.57;;
57615;SDS011;43816;52.054;-9.494;2023-08-17T00:17:25;2.90;;;2.80;;
57615;SDS011;43816;52.054;-9.494;2023-08-17T00:17:35;2.97;;;2.88;;
57615;SDS011;43816;52.054;-9.494;2023-08-17T00:17:46;3.00;;;2.90;;
57615;SDS011;43816;52.054;-9.494;2023-08-17T00:17:56;2.90;;;2.80;;
57615;SDS011;43816;52.054;-9.494;2023-08-17T00:18:06;2.80;;;2.70;;
57615;SDS011;43816;52.054;-9.494;2023-08-17T00:18:16;2.80;;;2.70;;
57615;SDS011;43816;52.054;-9.494;2023-08-17T00:18:27;2.77;;;2.67;;
57615;SDS011;43816;52.054;-9.494;2023-08-17T00:18:37;2.70;;;2.60;;
57615;SDS011;43816;52.054;-9.494;2023-08-17T00:18:47;2.70;;;2.60;;
57615;SDS011;43816;52.054;-9.494;2023-08-17T00:18:58;2.70;;;2.60;;
57615;SDS011;43816;52.054;-9.494;2023-08-17T00:19:08;2.70;;;2.60;;
57615;SDS011;43816;52.054;-9.494;2023-08-17T00:19:18;2.63;;;2.53;;
57615;SDS011;43816;52.054;-9.494;2023-08-17T00:19:28;3.00;;;2.90;;
57615;SDS011;43816;52.054;-9.494;2023-08-17T00:19:39;2.93;;;2.83;;
57615;SDS011;43816;52.054;-9.494;2023-08-17T00:19:49;2.93;;;2.83;;
57615;SDS011;43816;52.054;-9.494;2023-08-17T00:19:59;2.80;;;2.70;;
57615;SDS011;43816;52.054;-9.494;2023-08-17T00:20:10;3.00;;;2.90;;
57615;SDS011;43816;52.054;-9.494;2023-08-17T00:20:20;3.00;;;2.90;;
57615;SDS011;43816;52.054;-9.494;2023-08-17T00:20:30;3.00;;;2.90;;
57615;SDS011;43816;52.054;-9.494;2023-08-17T00:20:41;3.00;;;2.90;;
57615;SDS011;43816;52.054;-9.494;2023-08-17T00:20:51;2.87;;;2.77;;
57615;SDS011;43816;52.054;-9.494;2023-08-17T00:21:01;2.85;;;2.75;;
57615;SDS011;43816;52.054;-9.494;2023-08-17T00:21:12;2.50;;;2.50;;
57615;SDS011;43816;52.054;-9.494;2023-08-17T00:21:22;2.67;;;2.58;;
57615;SDS011;43816;52.054;-9.494;2023-08-17T00:21:33;2.60;;;2.50;;
57615;SDS011;43816;52.054;-9.494;2023-08-17T00:21:44;2.70;;;2.60;;
57615;SDS011;43816;52.054;-9.494;2023-08-17T00:21:55;2.70;;;2.60;;
57615;SDS011;43816;52.054;-9.494;2023-08-17T00:22:05;2.80;;;2.70;;
57615;SDS011;43816;52.054;-9.494;2023-08-17T00:22:15;2.80;;;2.70;;
57615;SDS011;43816;52.054;-9.494;2023-08-17T00:22:26;2.80;;;2.70;;
57615;SDS011;43816;52.054;-9.494;2023-08-17T00:22:36;2.70;;;2.60;;
57615;SDS011;43816;52.054;-9.494;2023-08-17T00:22:46;2.77;;;2.67;;
57615;SDS011;43816;52.054;-9.494;2023-08-17T00:22:56;2.80;;;2.70;;
57615;SDS011;43816;52.054;-9.494;2023-08-17T00:23:07;2.50;;;2.50;;
57615;SDS011;43816;52.054;-9.494;2023-08-17T00:23:17;2.90;;;2.80;;
57615;SDS011;43816;52.054;-9.494;2023-08-17T00:23:27;2.93;;;2.83;;
57615;SDS011;43816;52.054;-9.494;2023-08-17T00:23:38;3.30;;;3.20;;
57615;SDS011;43816;52.054;-9.494;2023-08-17T00:23:48;3.03;;;2.92;;
57615;SDS011;43816;52.054;-9.494;2023-08-17T00:23:58;2.93;;;2.83;;
57615;SDS011;43816;52.054;-9.494;2023-08-17T00:24:08;2.80;;;2.70;;
57615;SDS011;43816;52.054;-9.494;2023-08-17T00:24:19;2.80;;;2.70;;
57615;SDS011;43816;52.054;-9.494;2023-08-17T00:24:29;2.73;;;2.63;;
57615;SDS011;43816;52.054;-9.494;2023-08-17T00:24:39;2.70;;;2.60;;
57615;SDS011;43816;52.054;-9.494;2023-08-17T00:24:50;2.67;;;2.60;;
57615;SDS011;43816;52.054;-9.494;2023-08-17T00:25:00;2.63;;;2.60;;
57615;SDS011;43816;52.054;-9.494;2023-08-17T00:25:10;2.60;;;2.57;;
57615;SDS011;43816;52.054;-9.494;2023-08-17T00:25:21;2.60;;;2.50;;
57615;SDS011;43816;52.054;-9.494;2023-08-17T00:25:31;2.60;;;2.50;;
57615;SDS011;43816;52.054;-9.494;2023-08-17T00:25:41;2.73;;;2.63;;
57615;SDS011;43816;52.054;-9.494;2023-08-17T00:25:51;3.07;;;2.97;;
57615;SDS011;43816;52.054;-9.494;2023-08-17T00:26:02;3.25;;;3.15;;
57615;SDS011;43816;52.054;-9.494;2023-08-17T00:26:12;3.20;;;3.10;;
57615;SDS011;43816;52.054;-9.494;2023-08-17T00:26:22;3.00;;;2.90;;
57615;SDS011;43816;52.054;-9.494;2023-08-17T00:26:33;2.88;;;2.78;;
57615;SDS011;43816;52.054;-9.494;2023-08-17T00:26:43;2.93;;;2.83;;
57615;SDS011;43816;52.054;-9.494;2023-08-17T00:26:53;3.07;;;2.97;;
57615;SDS011;43816;52.054;-9.494;2023-08-17T00:27:04;3.13;;;3.03;;
57615;SDS011;43816;52.054;-9.494;2023-08-17T00:27:14;3.15;;;3.05;;
57615;SDS011;43816;52.054;-9.494;2023-08-17T00:27:24;3.10;;;3.00;;
57615;SDS011;43816;52.054;-9.494;2023-08-17T00:27:34;3.20;;;3.00;;
57615;SDS011;43816;52.054;-9.494;2023-08-17T00:27:45;2.92;;;2.83;;
57615;SDS011;43816;52.054;-9.494;2023-08-17T00:27:55;2.80;;;2.70;;
57615;SDS011;43816;52.054;-9.494;2023-08-17T00:28:05;3.20;;;3.00;;
57615;SDS011;43816;52.054;-9.494;2023-08-17T00:28:15;3.27;;;3.00;;
57615;SDS011;43816;52.054;-9.494;2023-08-17T00:28:26;3.20;;;3.00;;
57615;SDS011;43816;52.054;-9.494;2023-08-17T00:28:36;2.60;;;2.50;;
57615;SDS011;43816;52.054;-9.494;2023-08-17T00:28:47;2.80;;;2.70;;
57615;SDS011;43816;52.054;-9.494;2023-08-17T00:28:57;2.90;;;2.80;;
57615;SDS011;43816;52.054;-9.494;2023-08-17T00:29:07;3.00;;;2.90;;
57615;SDS011;43816;52.054;-9.494;2023-08-17T00:29:18;2.83;;;2.72;;
57615;SDS011;43816;52.054;-9.494;2023-08-17T00:29:28;3.00;;;2.90;;
57615;SDS011;43816;52.054;-9.494;2023-08-17T00:29:38;3.00;;;2.90;;
57615;SDS011;43816;52.054;-9.494;2023-08-17T00:29:48;2.92;;;2.83;;
57615;SDS011;43816;52.054;-9.494;2023-08-17T00:29:59;2.70;;;2.60;;
57615;SDS011;43816;52.054;-9.494;2023-08-17T00:30:09;2.63;;;2.53;;
57615;SDS011;43816;52.054;-9.494;2023-08-17T00:30:20;2.60;;;2.50;;
57615;SDS011;43816;52.054;-9.494;2023-08-17T00:30:30;2.60;;;2.50;;
57615;SDS011;43816;52.054;-9.494;2023-08-17T00:30:40;2.70;;;2.60;;
57615;SDS011;43816;52.054;-9.494;2023-08-17T00:30:51;2.87;;;2.77;;
57615;SDS011;43816;52.054;-9.494;2023-08-17T00:31:01;3.10;;;3.00;;
57615;SDS011;43816;52.054;-9.494;2023-08-17T00:31:11;3.05;;;2.95;;
57615;SDS011;43816;52.054;-9.494;2023-08-17T00:31:22;3.13;;;3.03;;
57615;SDS011;43816;52.054;-9.494;2023-08-17T00:31:32;3.00;;;2.90;;
57615;SDS011;43816;52.054;-9.494;2023-08-17T00:31:42;2.87;;;2.77;;
57615;SDS011;43816;52.054;-9.494;2023-08-17T00:31:52;2.75;;;2.65;;
57615;SDS011;43816;52.054;-9.494;2023-08-17T00:32:03;2.80;;;2.70;;
57615;SDS011;43816;52.054;-9.494;2023-08-17T00:32:13;2.80;;;2.70;;
57615;SDS011;43816;52.054;-9.494;2023-08-17T00:32:24;2.73;;;2.63;;
57615;SDS011;43816;52.054;-9.494;2023-08-17T00:32:34;2.77;;;2.70;;
57615;SDS011;43816;52.054;-9.494;2023-08-17T00:32:44;3.10;;;3.00;;
57615;SDS011;43816;52.054;-9.494;2023-08-17T00:32:54;3.10;;;3.00;;
57615;SDS011;43816;52.054;-9.494;2023-08-17T00:33:08;2.87;;;2.77;;
57615;SDS011;43816;52.054;-9.494;2023-08-17T00:33:21;2.70;;;2.60;;
57615;SDS011;43816;52.054;-9.494;2023-08-17T00:33:32;2.88;;;2.78;;
57615;SDS011;43816;52.054;-9.494;2023-08-17T00:33:42;2.80;;;2.70;;
57615;SDS011;43816;52.054;-9.494;2023-08-17T00:33:52;2.85;;;2.75;;
57615;SDS011;43816;52.054;-9.494;2023-08-17T00:34:02;2.80;;;2.70;;
57615;SDS011;43816;52.054;-9.494;2023-08-17T00:34:13;2.90;;;2.80;;
57615;SDS011;43816;52.054;-9.494;2023-08-17T00:34:23;2.90;;;2.80;;
57615;SDS011;43816;52.054;-9.494;2023-08-17T00:34:33;2.90;;;2.80;;
57615;SDS011;43816;52.054;-9.494;2023-08-17T00:34:44;2.90;;;2.80;;
57615;SDS011;43816;52.054;-9.494;2023-08-17T00:34:54;2.90;;;2.80;;
57615;SDS011;43816;52.054;-9.494;2023-08-17T00:35:04;2.90;;;2.80;;
57615;SDS011;43816;52.054;-9.494;2023-08-17T00:35:15;3.00;;;2.90;;
57615;SDS011;43816;52.054;-9.494;2023-08-17T00:35:25;2.90;;;2.80;;
57615;SDS011;43816;52.054;-9.494;2023-08-17T00:35:36;3.00;;;2.90;;
57615;SDS011;43816;52.054;-9.494;2023-08-17T00:35:46;3.10;;;2.90;;
57615;SDS011;43816;52.054;-9.494;2023-08-17T00:35:56;3.10;;;3.00;;
57615;SDS011;43816;52.054;-9.494;2023-08-17T00:36:07;2.90;;;2.80;;
57615;SDS011;43816;52.054;-9.494;2023-08-17T00:36:17;2.75;;;2.65;;
57615;SDS011;43816;52.054;-9.494;2023-08-17T00:36:27;2.80;;;2.70;;
57615;SDS011;43816;52.054;-9.494;2023-08-17T00:36:37;3.20;;;3.10;;
57615;SDS011;43816;52.054;-9.494;2023-08-17T00:36:48;3.13;;;3.03;;
57615;SDS011;43816;52.054;-9.494;2023-08-17T00:36:58;3.10;;;3.00;;
57615;SDS011;43816;52.054;-9.494;2023-08-17T00:37:08;2.70;;;2.60;;
57615;SDS011;43816;52.054;-9.494;2023-08-17T00:37:19;2.80;;;2.70;;
57615;SDS011;43816;52.054;-9.494;2023-08-17T00:37:29;2.72;;;2.63;;
57615;SDS011;43816;52.054;-9.494;2023-08-17T00:37:39;2.87;;;2.77;;
57615;SDS011;43816;52.054;-9.494;2023-08-17T00:37:49;2.90;;;2.80;;
57615;SDS011;43816;52.054;-9.494;2023-08-17T00:38:00;2.70;;;2.60;;
57615;SDS011;43816;52.054;-9.494;2023-08-17T00:38:10;2.40;;;2.30;;
57615;SDS011;43816;52.054;-9.494;2023-08-17T00:38:20;2.33;;;2.23;;
57615;SDS011;43816;52.054;-9.494;2023-08-17T00:38:31;2.57;;;2.47;;
57615;SDS011;43816;52.054;-9.494;2023-08-17T00:38:41;2.75;;;2.67;;
57615;SDS011;43816;52.054;-9.494;2023-08-17T00:38:51;2.87;;;2.77;;
57615;SDS011;43816;52.054;-9.494;2023-08-17T00:39:01;2.97;;;2.87;;
57615;SDS011;43816;52.054;-9.494;2023-08-17T00:39:12;2.90;;;2.80;;
57615;SDS011;43816;52.054;-9.494;2023-08-17T00:39:22;3.03;;;2.93;;
57615;SDS011;43816;52.054;-9.494;2023-08-17T00:39:32;2.90;;;2.80;;
57615;SDS011;43816;52.054;-9.494;2023-08-17T00:39:43;2.92;;;2.83;;
57615;SDS011;43816;52.054;-9.494;2023-08-17T00:39:53;3.03;;;2.93;;
57615;SDS011;43816;52.054;-9.494;2023-08-17T00:40:04;3.00;;;2.90;;
57615;SDS011;43816;52.054;-9.494;2023-08-17T00:40:14;2.93;;;2.83;;
57615;SDS011;43816;52.054;-9.494;2023-08-17T00:40:25;2.85;;;2.75;;
57615;SDS011;43816;52.054;-9.494;2023-08-17T00:40:35;3.20;;;3.10;;
57615;SDS011;43816;52.054;-9.494;2023-08-17T00:40:45;3.20;;;3.10;;
57615;SDS011;43816;52.054;-9.494;2023-08-17T00:40:56;2.97;;;2.88;;
57615;SDS011;43816;52.054;-9.494;2023-08-17T00:41:06;2.83;;;2.73;;
57615;SDS011;43816;52.054;-9.494;2023-08-17T00:41:16;2.95;;;2.85;;
57615;SDS011;43816;52.054;-9.494;2023-08-17T00:41:27;2.90;;;2.80;;
57615;SDS011;43816;52.054;-9.494;2023-08-17T00:41:37;2.90;;;2.80;;
57615;SDS011;43816;52.054;-9.494;2023-08-17T00:41:47;2.80;;;2.70;;
57615;SDS011;43816;52.054;-9.494;2023-08-17T00:41:58;2.85;;;2.75;;
57615;SDS011;43816;52.054;-9.494;2023-08-17T00:42:08;3.10;;;3.00;;
57615;SDS011;43816;52.054;-9.494;2023-08-17T00:42:18;3.10;;;3.00;;
57615;SDS011;43816;52.054;-9.494;2023-08-17T00:42:28;3.15;;;3.05;;
57615;SDS011;43816;52.054;-9.494;2023-08-17T00:42:39;3.10;;;3.00;;
57615;SDS011;43816;52.054;-9.494;2023-08-17T00:42:49;3.00;;;2.90;;
57615;SDS011;43816;52.054;-9.494;2023-08-17T00:42:59;3.33;;;3.23;;
57615;SDS011;43816;52.054;-9.494;2023-08-17T00:43:09;3.17;;;3.08;;
57615;SDS011;43816;52.054;-9.494;2023-08-17T00:43:20;3.30;;;3.20;;
57615;SDS011;43816;52.054;-9.494;2023-08-17T00:43:30;2.87;;;2.77;;
57615;SDS011;43816;52.054;-9.494;2023-08-17T00:43:40;2.78;;;2.67;;
57615;SDS011;43816;52.054;-9.494;2023-08-17T00:43:51;2.90;;;2.80;;
57615;SDS011;43816;52.054;-9.494;2023-08-17T00:44:01;2.90;;;2.80;;
57615;SDS011;43816;52.054;-9.494;2023-08-17T00:44:12;2.92;;;2.83;;
57615;SDS011;43816;52.054;-9.494;2023-08-17T00:44:22;2.70;;;2.60;;
57615;SDS011;43816;52.054;-9.494;2023-08-17T00:44:32;2.80;;;2.70;;
57615;SDS011;43816;52.054;-9.494;2023-08-17T00:44:42;3.00;;;2.90;;
57615;SDS011;43816;52.054;-9.494;2023-08-17T00:44:53;3.13;;;3.03;;
57615;SDS011;43816;52.054;-9.494;2023-08-17T00:45:03;3.00;;;2.90;;
57615;SDS011;43816;52.054;-9.494;2023-08-17T00:45:14;2.90;;;2.80;;
57615;SDS011;43816;52.054;-9.494;2023-08-17T00:45:24;2.90;;;2.80;;
57615;SDS011;43816;52.054;-9.494;2023-08-17T00:45:34;3.00;;;2.90;;
57615;SDS011;43816;52.054;-9.494;2023-08-17T00:45:45;2.93;;;2.83;;
57615;SDS011;43816;52.054;-9.494;2023-08-17T00:45:56;2.80;;;2.70;;
57615;SDS011;43816;52.054;-9.494;2023-08-17T00:46:07;2.72;;;2.63;;
57615;SDS011;43816;52.054;-9.494;2023-08-17T00:46:18;2.70;;;2.60;;
57615;SDS011;43816;52.054;-9.494;2023-08-17T00:46:28;2.83;;;2.72;;
57615;SDS011;43816;52.054;-9.494;2023-08-17T00:46:39;2.80;;;2.75;;
57615;SDS011;43816;52.054;-9.494;2023-08-17T00:46:50;3.10;;;3.00;;
57615;SDS011;43816;52.054;-9.494;2023-08-17T00:47:00;3.10;;;3.00;;
57615;SDS011;43816;52.054;-9.494;2023-08-17T00:47:11;3.00;;;2.90;;
57615;SDS011;43816;52.054;-9.494;2023-08-17T00:47:21;2.93;;;2.83;;
57615;SDS011;43816;52.054;-9.494;2023-08-17T00:47:32;3.00;;;2.90;;
57615;SDS011;43816;52.054;-9.494;2023-08-17T00:47:42;3.10;;;3.00;;
57615;SDS011;43816;52.054;-9.494;2023-08-17T00:47:54;3.10;;;3.00;;
57615;SDS011;43816;52.054;-9.494;2023-08-17T00:48:06;3.00;;;2.90;;
57615;SDS011;43816;52.054;-9.494;2023-08-17T00:48:18;2.80;;;2.70;;
57615;SDS011;43816;52.054;-9.494;2023-08-17T00:48:28;2.78;;;2.67;;
57615;SDS011;43816;52.054;-9.494;2023-08-17T00:48:39;2.78;;;2.67;;
57615;SDS011;43816;52.054;-9.494;2023-08-17T00:48:50;2.90;;;2.80;;
57615;SDS011;43816;52.054;-9.494;2023-08-17T00:49:01;2.80;;;2.70;;
57615;SDS011;43816;52.054;-9.494;2023-08-17T00:49:11;2.75;;;2.65;;
57615;SDS011;43816;52.054;-9.494;2023-08-17T00:49:22;2.80;;;2.70;;
57615;SDS011;43816;52.054;-9.494;2023-08-17T00:49:32;2.90;;;2.80;;
57615;SDS011;43816;52.054;-9.494;2023-08-17T00:49:44;2.92;;;2.83;;
57615;SDS011;43816;52.054;-9.494;2023-08-17T00:49:55;3.00;;;2.90;;
57615;SDS011;43816;52.054;-9.494;2023-08-17T00:50:06;3.00;;;2.90;;
57615;SDS011;43816;52.054;-9.494;2023-08-17T00:50:17;2.95;;;2.85;;
57615;SDS011;43816;52.054;-9.494;2023-08-17T00:50:28;3.20;;;3.10;;
57615;SDS011;43816;52.054;-9.494;2023-08-17T00:50:39;3.20;;;3.10;;
57615;SDS011;43816;52.054;-9.494;2023-08-17T00:50:50;2.92;;;2.83;;
57615;SDS011;43816;52.054;-9.494;2023-08-17T00:51:02;2.70;;;2.60;;
57615;SDS011;43816;52.054;-9.494;2023-08-17T00:51:13;2.90;;;2.80;;
57615;SDS011;43816;52.054;-9.494;2023-08-17T00:51:24;3.10;;;3.00;;
57615;SDS011;43816;52.054;-9.494;2023-08-17T00:51:34;2.92;;;2.80;;
57615;SDS011;43816;52.054;-9.494;2023-08-17T00:51:45;2.70;;;2.60;;
57615;SDS011;43816;52.054;-9.494;2023-08-17T00:51:56;2.60;;;2.50;;
57615;SDS011;43816;52.054;-9.494;2023-08-17T00:52:06;2.63;;;2.53;;
57615;SDS011;43816;52.054;-9.494;2023-08-17T00:52:17;2.60;;;2.50;;
57615;SDS011;43816;52.054;-9.494;2023-08-17T00:52:27;2.77;;;2.67;;
57615;SDS011;43816;52.054;-9.494;2023-08-17T00:52:38;3.00;;;2.90;;
57615;SDS011;43816;52.054;-9.494;2023-08-17T00:52:49;3.00;;;2.90;;
57615;SDS011;43816;52.054;-9.494;2023-08-17T00:53:01;3.08;;;2.97;;
57615;SDS011;43816;52.054;-9.494;2023-08-17T00:53:12;2.90;;;2.80;;
57615;SDS011;43816;52.054;-9.494;2023-08-17T00:53:22;2.90;;;2.80;;
57615;SDS011;43816;52.054;-9.494;2023-08-17T00:53:34;2.95;;;2.85;;
57615;SDS011;43816;52.054;-9.494;2023-08-17T00:53:45;3.08;;;2.97;;
57615;SDS011;43816;52.054;-9.494;2023-08-17T00:53:57;3.10;;;3.00;;
57615;SDS011;43816;52.054;-9.494;2023-08-17T00:54:08;3.05;;;2.95;;
57615;SDS011;43816;52.054;-9.494;2023-08-17T00:54:24;2.78;;;2.67;;
57615;SDS011;43816;52.054;-9.494;2023-08-17T00:54:37;2.70;;;2.60;;
57615;SDS011;43816;52.054;-9.494;2023-08-17T00:54:47;2.83;;;2.73;;
57615;SDS011;43816;52.054;-9.494;2023-08-17T00:54:57;3.10;;;3.00;;
57615;SDS011;43816;52.054;-9.494;2023-08-17T00:55:10;3.05;;;2.95;;
57615;SDS011;43816;52.054;-9.494;2023-08-17T00:55:21;3.05;;;2.95;;
57615;SDS011;43816;52.054;-9.494;2023-08-17T00:55:35;2.90;;;2.80;;
57615;SDS011;43816;52.054;-9.494;2023-08-17T00:55:45;2.97;;;2.88;;
57615;SDS011;43816;52.054;-9.494;2023-08-17T00:55:56;3.10;;;3.00;;
57615;SDS011;43816;52.054;-9.494;2023-08-17T00:56:07;3.05;;;2.95;;
57615;SDS011;43816;52.054;-9.494;2023-08-17T00:56:18;3.00;;;2.90;;
57615;SDS011;43816;52.054;-9.494;2023-08-17T00:56:29;3.10;;;3.00;;
57615;SDS011;43816;52.054;-9.494;2023-08-17T00:56:40;3.08;;;2.97;;
57615;SDS011;43816;52.054;-9.494;2023-08-17T00:56:51;3.17;;;3.08;;
57615;SDS011;43816;52.054;-9.494;2023-08-17T00:57:02;2.95;;;2.85;;
57615;SDS011;43816;52.054;-9.494;2023-08-17T00:57:12;2.88;;;2.78;;
57615;SDS011;43816;52.054;-9.494;2023-08-17T00:57:23;2.73;;;2.63;;
57615;SDS011;43816;52.054;-9.494;2023-08-17T00:57:33;2.90;;;2.80;;
57615;SDS011;43816;52.054;-9.494;2023-08-17T00:57:44;2.90;;;2.80;;
57615;SDS011;43816;52.054;-9.494;2023-08-17T00:57:55;3.00;;;2.90;;
57615;SDS011;43816;52.054;-9.494;2023-08-17T00:58:06;2.90;;;2.80;;
57615;SDS011;43816;52.054;-9.494;2023-08-17T00:58:16;2.80;;;2.70;;
57615;SDS011;43816;52.054;-9.494;2023-08-17T00:58:27;2.80;;;2.70;;
57615;SDS011;43816;52.054;-9.494;2023-08-17T00:58:37;3.00;;;2.90;;
57615;SDS011;43816;52.054;-9.494;2023-08-17T00:58:48;3.00;;;2.90;;
57615;SDS011;43816;52.054;-9.494;2023-08-17T00:58:59;2.85;;;2.75;;
57615;SDS011;43816;52.054;-9.494;2023-08-17T00:59:09;2.83;;;2.72;;
57615;SDS011;43816;52.054;-9.494;2023-08-17T00:59:20;3.03;;;2.93;;
57615;SDS011;43816;52.054;-9.494;2023-08-17T00:59:31;3.20;;;3.10;;
57615;SDS011;43816;52.054;-9.494;2023-08-17T00:59:42;3.20;;;3.10;;
57615;SDS011;43816;52.054;-9.494;2023-08-17T00:59:52;3.13;;;3.03;;
57615;SDS011;43816;52.054;-9.494;2023-08-17T01:00:03;3.10;;;3.00;;
57615;SDS011;43816;52.054;-9.494;2023-08-17T01:00:15;3.00;;;2.90;;
57615;SDS011;43816;52.054;-9.494;2023-08-17T01:00:25;2.80;;;2.70;;
57615;SDS011;43816;52.054;-9.494;2023-08-17T01:00:36;2.70;;;2.60;;
57615;SDS011;43816;52.054;-9.494;2023-08-17T01:00:46;2.70;;;2.60;;
57615;SDS011;43816;52.054;-9.494;2023-08-17T01:00:57;2.83;;;2.73;;
57615;SDS011;43816;52.054;-9.494;2023-08-17T01:01:08;3.20;;;3.10;;
57615;SDS011;43816;52.054;-9.494;2023-08-17T01:01:19;3.37;;;3.27;;
57615;SDS011;43816;52.054;-9.494;2023-08-17T01:01:30;3.40;;;3.30;;
57615;SDS011;43816;52.054;-9.494;2023-08-17T01:01:40;3.10;;;3.00;;
57615;SDS011;43816;52.054;-9.494;2023-08-17T01:01:52;3.08;;;2.97;;
57615;SDS011;43816;52.054;-9.494;2023-08-17T01:02:02;3.00;;;2.90;;
57615;SDS011;43816;52.054;-9.494;2023-08-17T01:02:13;2.92;;;2.83;;
57615;SDS011;43816;52.054;-9.494;2023-08-17T01:02:23;3.00;;;2.90;;